createdAt,value
2023-04-24T00:00:10.119Z,54.30
2023-04-24T00:04:15.433Z,54.10
2023-04-24T00:08:18.594Z,54.50
2023-04-24T00:12:22.978Z,54.40
2023-04-24T00:16:26.086Z,54.80
2023-04-24T00:20:30.456Z,54.25
2023-04-24T00:24:33.462Z,54.60
2023-04-24T00:28:37.825Z,54.00
2023-04-24T00:32:40.941Z,54.20
2023-04-24T00:36:43.947Z,54.50
2023-04-24T00:40:48.512Z,54.23
2023-04-24T00:44:53.548Z,54.40
2023-04-24T00:48:58.157Z,54.40
2023-04-24T00:53:01.320Z,54.70
2023-04-24T00:57:05.785Z,54.45
2023-04-24T01:01:12.699Z,55.75
2023-04-24T01:05:18.343Z,54.70
2023-04-24T01:09:23.584Z,54.50
2023-04-24T01:13:26.658Z,54.85
2023-04-24T01:17:31.037Z,54.70
2023-04-24T01:21:37.689Z,54.70
2023-04-24T01:25:42.189Z,54.30
2023-04-24T01:29:45.382Z,53.65
2023-04-24T01:33:49.557Z,54.70
2023-04-24T01:37:52.541Z,54.60
2023-04-24T01:41:57.319Z,54.90
2023-04-24T01:46:00.359Z,54.00
2023-04-24T01:50:03.383Z,54.40
2023-04-24T01:54:07.450Z,54.83
2023-04-24T01:58:11.889Z,54.30
2023-04-24T02:02:16.717Z,54.95
2023-04-24T02:06:19.723Z,54.85
2023-04-24T02:10:22.972Z,54.90
2023-04-24T02:14:27.395Z,54.00
2023-04-24T02:18:30.360Z,54.70
2023-04-24T02:22:33.388Z,54.77
2023-04-24T02:26:36.373Z,54.50
2023-04-24T02:30:40.720Z,54.75
2023-04-24T02:34:43.801Z,55.00
2023-04-24T02:38:46.776Z,54.40
2023-04-24T02:42:49.746Z,54.00
2023-04-24T02:46:54.090Z,54.80
2023-04-24T02:50:57.083Z,54.90
2023-04-24T02:55:00.135Z,55.13
2023-04-24T02:59:03.159Z,54.67
2023-04-24T03:03:08.115Z,54.50
2023-04-24T03:19:21.179Z,55.10
2023-04-24T03:27:26.992Z,54.97
2023-04-24T10:22:25.315Z,59.25
2023-04-24T10:26:29.623Z,59.80
2023-04-24T10:30:36.188Z,58.93
2023-04-24T10:34:39.310Z,58.97
2023-04-24T10:38:48.698Z,58.80
2023-04-24T10:42:56.856Z,54.80
2023-04-24T10:47:01.334Z,54.00
2023-04-24T10:51:04.425Z,53.60
2023-04-24T10:55:09.758Z,54.37
2023-04-24T10:59:12.723Z,54.50
2023-04-24T11:03:28.834Z,54.20
2023-04-24T11:07:32.095Z,54.40
2023-04-24T11:11:38.163Z,53.80
2023-04-24T11:15:44.657Z,54.35
2023-04-24T11:19:54.585Z,54.53
2023-04-24T11:23:58.801Z,54.90
2023-04-24T11:28:09.120Z,54.20
2023-04-24T11:32:20.874Z,53.17
2023-04-24T11:36:24.036Z,54.20
2023-04-24T11:40:28.124Z,54.47
2023-04-24T11:44:33.488Z,54.20
2023-04-24T11:48:41.053Z,54.30
2023-04-24T11:52:45.275Z,53.67
2023-04-24T11:56:48.788Z,54.60
2023-04-24T12:01:00.519Z,54.80
2023-04-24T12:05:03.732Z,54.67
2023-04-24T12:09:17.969Z,54.63
2023-04-24T12:13:21.628Z,53.73
2023-04-24T12:17:31.397Z,54.27
2023-04-24T12:21:34.410Z,55.80
2023-04-24T12:25:37.673Z,53.90
2023-04-24T12:29:54.488Z,54.00
2023-04-24T12:33:58.839Z,54.85
2023-04-24T12:38:09.053Z,54.95
2023-04-24T12:42:12.139Z,54.07
2023-04-24T12:46:17.634Z,55.00
2023-04-24T12:50:22.723Z,57.40
2023-04-24T12:54:25.881Z,54.70
2023-04-24T12:58:28.887Z,54.35
2023-04-24T13:02:32.610Z,55.13
2023-04-24T13:06:37.467Z,54.40
2023-04-24T13:10:40.725Z,54.90
2023-04-24T13:14:44.002Z,54.95
2023-04-24T13:18:47.001Z,54.95
2023-04-24T13:22:51.340Z,54.80
2023-04-24T13:26:57.582Z,54.90
2023-04-24T13:31:01.067Z,55.00
2023-04-24T13:35:04.458Z,54.90
2023-04-24T13:39:08.862Z,55.13
2023-04-24T13:43:11.875Z,55.60
2023-04-24T13:47:14.869Z,54.90
2023-04-24T13:51:17.862Z,55.60
2023-04-24T13:55:22.254Z,55.10
2023-04-24T13:59:26.037Z,54.13
2023-04-24T14:03:29.189Z,55.70
2023-04-24T14:07:32.952Z,55.10
2023-04-24T14:11:37.744Z,55.10
2023-04-24T14:15:40.856Z,55.45
2023-04-24T14:19:43.863Z,54.90
2023-04-24T14:23:47.141Z,56.40
2023-04-24T14:27:51.644Z,54.80
2023-04-24T14:31:54.696Z,55.20
2023-04-24T14:35:57.724Z,55.15
2023-04-24T14:40:19.631Z,55.00
2023-04-24T14:44:25.091Z,55.10
2023-04-24T14:48:28.083Z,55.60
2023-04-24T14:52:31.087Z,55.10
2023-04-24T14:56:34.116Z,55.43
2023-04-24T15:00:38.828Z,55.75
2023-04-24T15:04:42.456Z,55.70
2023-04-24T15:08:47.407Z,56.07
2023-04-24T15:12:51.824Z,56.17
2023-04-24T15:16:56.160Z,56.95
2023-04-24T15:20:59.247Z,57.20
2023-04-24T15:25:02.233Z,56.70
2023-04-24T15:29:05.365Z,56.50
2023-04-24T15:33:10.277Z,56.00
2023-04-24T15:37:13.875Z,54.80
2023-04-24T15:41:16.842Z,56.85
2023-04-24T15:45:20.025Z,56.50
2023-04-24T15:49:24.389Z,56.90
2023-04-24T15:53:28.427Z,57.35
2023-04-24T15:57:31.431Z,57.50
2023-04-24T16:01:34.957Z,55.75
2023-04-24T16:05:40.094Z,56.47
2023-04-24T16:09:43.336Z,56.33
2023-04-24T16:13:46.356Z,58.10
2023-04-24T16:17:50.757Z,56.70
2023-04-24T16:21:56.271Z,57.33
2023-04-24T16:25:59.281Z,57.20
2023-04-24T16:30:02.423Z,57.20
2023-04-24T16:34:05.480Z,57.53
2023-04-24T16:38:10.237Z,57.07
2023-04-24T16:42:14.242Z,55.30
2023-04-24T16:46:17.464Z,56.93
2023-04-24T16:50:20.648Z,57.20
2023-04-24T16:54:25.100Z,57.33
2023-04-24T16:58:28.089Z,56.75
2023-04-24T17:02:32.256Z,57.73
2023-04-24T17:06:35.384Z,58.10
2023-04-24T17:10:41.184Z,56.70
2023-04-24T17:14:44.189Z,56.95
2023-04-24T17:18:47.331Z,56.75
2023-04-24T17:22:50.512Z,57.60
2023-04-24T17:26:58.901Z,57.30
2023-04-24T17:31:05.014Z,57.50
2023-04-24T17:35:09.186Z,57.43
2023-04-24T17:39:12.579Z,57.70
2023-04-24T17:43:18.217Z,57.33
2023-04-24T17:47:22.458Z,58.10
2023-04-24T17:51:26.078Z,56.20
2023-04-24T17:55:30.042Z,57.03
2023-04-24T17:59:36.174Z,56.60
2023-04-24T18:03:44.035Z,57.80
2023-04-24T18:07:47.863Z,57.63
2023-04-24T18:11:50.899Z,58.95
2023-04-24T18:15:55.325Z,58.40
2023-04-24T18:19:58.329Z,60.10
2023-04-24T18:24:01.307Z,61.23
2023-04-24T18:28:06.403Z,60.20
2023-04-24T18:32:10.750Z,60.90
2023-04-24T18:36:13.954Z,61.20
2023-04-24T18:40:17.849Z,60.30
2023-04-24T18:44:21.264Z,60.07
2023-04-24T18:48:25.645Z,60.75
2023-04-24T18:52:28.796Z,60.67
2023-04-24T18:56:31.746Z,61.10
2023-04-24T19:00:34.791Z,58.90
2023-04-24T19:04:39.181Z,56.80
2023-04-24T19:08:43.191Z,58.30
2023-04-24T19:12:46.744Z,59.00
2023-04-24T19:16:50.105Z,58.97
2023-04-24T19:20:54.626Z,58.42
2023-04-24T19:24:58.485Z,56.90
2023-04-24T19:29:01.488Z,58.10
2023-04-24T19:33:04.605Z,58.10
2023-04-24T19:37:09.141Z,58.20
2023-04-24T19:41:12.370Z,57.50
2023-04-24T19:45:15.604Z,57.40
2023-04-24T19:49:18.602Z,56.70
2023-04-24T19:53:22.939Z,57.47
2023-04-24T19:57:25.874Z,56.30
2023-04-24T20:01:28.935Z,56.50
2023-04-24T20:05:32.063Z,61.90
2023-04-24T20:09:36.473Z,60.80
2023-04-24T20:13:40.086Z,61.20
2023-04-24T20:17:43.112Z,60.90
2023-04-24T20:21:47.150Z,60.65
2023-04-24T20:25:57.906Z,60.05
2023-04-24T20:30:02.284Z,60.55
2023-04-24T20:34:06.657Z,61.43
2023-04-24T20:38:11.018Z,60.75
2023-04-24T20:42:16.636Z,60.70
2023-04-24T20:46:19.627Z,60.70
2023-04-24T20:50:22.710Z,60.73
2023-04-24T20:54:26.528Z,60.60
2023-04-24T20:58:31.252Z,60.60
2023-04-24T21:02:34.355Z,60.25
2023-04-24T21:06:37.570Z,60.30
2023-04-24T21:10:40.577Z,59.25
2023-04-24T21:14:44.930Z,58.70
2023-04-24T21:18:48.040Z,58.77
2023-04-24T21:22:51.058Z,57.75
2023-04-24T21:26:54.100Z,59.70
2023-04-24T21:30:58.480Z,59.35
2023-04-24T21:35:01.509Z,58.70
2023-04-24T21:39:04.572Z,59.10
2023-04-24T21:43:07.585Z,58.90
2023-04-24T21:47:11.961Z,57.70
2023-04-24T21:51:16.584Z,57.60
2023-04-24T21:55:21.251Z,58.40
2023-04-24T21:59:24.466Z,58.50
2023-04-24T22:03:29.687Z,58.60
2023-04-24T22:07:36.498Z,59.13
2023-04-24T22:11:39.596Z,58.40
2023-04-24T22:15:42.589Z,58.95
2023-04-24T22:19:46.951Z,58.70
2023-04-24T22:23:50.251Z,59.95
2023-04-24T22:27:53.530Z,57.97
2023-04-24T22:31:57.812Z,58.95
2023-04-24T22:36:02.724Z,59.10
2023-04-24T22:40:08.711Z,58.50
2023-04-24T22:44:12.124Z,58.60
2023-04-24T22:48:15.112Z,57.20
2023-04-24T22:52:19.443Z,58.30
2023-04-24T22:56:22.443Z,58.10
2023-04-24T23:00:25.588Z,58.27
2023-04-24T23:04:29.206Z,57.90
2023-04-24T23:08:33.713Z,57.70
2023-04-24T23:12:36.844Z,58.70
2023-04-24T23:16:41.105Z,58.90
2023-04-24T23:20:44.316Z,58.70
2023-04-24T23:24:48.711Z,58.00
2023-04-24T23:28:51.708Z,57.70
2023-04-24T23:32:54.872Z,58.70
2023-04-24T23:36:57.864Z,58.50
2023-04-24T23:41:02.443Z,58.40
2023-04-24T23:45:06.208Z,57.10
2023-04-24T23:49:09.711Z,58.20
2023-04-24T23:57:16.957Z,57.60
